Time;durP1;ratioP1;P1;durP2;ratioP2;P2;SDS_P1;SDS_P2;PMS_P1;PMS_P2;Temp;Humidity;BMP_temperature;BMP_pressure;BME280_temperature;BME280_humidity;BME280_pressure;Samples;Min_cycle;Max_cycle;Signal;HPM_P1;HPM_P2
2021/05/17 00:00:42;;;;;;;12.80;9.45;;;;;;;17.57;63.70;99580.38;4944665;29;20038;-59
2021/05/17 00:03:08;;;;;;;14.70;9.57;;;;;;;17.55;64.77;99577.84;4947774;29;20094;-59
2021/05/17 00:05:34;;;;;;;13.23;9.00;;;;;;;17.54;64.50;99575.31;4947818;29;20055;-60
2021/05/17 00:08:02;;;;;;;14.48;9.82;;;;;;;17.46;65.37;99580.97;4947911;29;20308;-60
2021/05/17 00:10:28;;;;;;;13.30;9.48;;;;;;;17.53;65.09;99581.47;4947294;29;20027;-60
2021/05/17 00:12:54;;;;;;;10.23;8.90;;;;;;;17.43;64.48;99573.28;4947603;29;20071;-60
2021/05/17 00:15:21;;;;;;;12.65;9.30;;;;;;;17.38;65.08;99581.34;4947785;29;20073;-61
2021/05/17 00:17:48;;;;;;;14.13;9.48;;;;;;;17.50;64.41;99585.13;4947791;29;20051;-60
2021/05/17 00:20:16;;;;;;;14.98;9.70;;;;;;;17.22;64.63;99533.34;4947723;29;20027;-58
2021/05/17 00:22:43;;;;;;;13.77;9.52;;;;;;;17.49;64.44;99586.03;4946240;29;20119;-59
2021/05/17 00:25:10;;;;;;;12.90;8.98;;;;;;;17.52;63.96;99587.66;4962666;28;20041;-58
2021/05/17 00:27:36;;;;;;;14.43;9.63;;;;;;;17.39;65.01;99585.66;4947605;29;20035;-58
2021/05/17 00:30:12;;;;;;;9.95;7.63;;;;;;;17.33;63.63;99593.84;4947487;29;20039;-59
2021/05/17 00:32:38;;;;;;;12.55;8.38;;;;;;;17.33;63.90;99588.59;4947605;29;20036;-59
2021/05/17 00:35:04;;;;;;;10.35;9.02;;;;;;;17.41;65.17;99589.06;4945990;29;20354;-59
2021/05/17 00:37:32;;;;;;;13.57;8.88;;;;;;;17.20;64.63;99582.28;4947219;29;20036;-59
2021/05/17 00:39:58;;;;;;;9.10;8.20;;;;;;;17.23;64.02;99592.63;4947289;29;20034;-59
2021/05/17 00:42:24;;;;;;;15.80;9.57;;;;;;;17.27;65.74;99590.66;4946846;29;20339;-59
2021/05/17 00:44:50;;;;;;;13.13;9.43;;;;;;;17.24;65.54;99589.91;4928086;29;20031;-59
2021/05/17 00:47:17;;;;;;;10.90;8.77;;;;;;;17.33;65.22;99588.59;4941388;29;20036;-59
2021/05/17 00:49:45;;;;;;;11.20;8.93;;;;;;;17.02;65.21;99532.56;4947018;29;20032;-59
2021/05/17 00:52:17;;;;;;;12.50;8.95;;;;;;;17.37;65.11;99590.13;4946750;29;20046;-59
2021/05/17 00:54:44;;;;;;;10.15;8.75;;;;;;;17.33;65.15;99592.97;4947392;29;20035;-59
2021/05/17 00:57:10;;;;;;;9.32;8.35;;;;;;;17.24;63.90;99599.53;4946551;29;20059;-59
2021/05/17 00:59:36;;;;;;;13.45;8.80;;;;;;;17.25;64.92;99593.38;4946820;29;20067;-59
2021/05/17 01:02:03;;;;;;;10.75;8.43;;;;;;;17.21;65.28;99602.28;4942568;29;20031;-60
2021/05/17 01:04:30;;;;;;;9.73;7.85;;;;;;;17.23;63.50;99597.84;4941095;29;20035;-59
2021/05/17 01:06:58;;;;;;;14.25;8.35;;;;;;;17.17;63.72;99587.66;4936573;29;20052;-59
2021/05/17 01:09:28;;;;;;;12.75;7.60;;;;;;;17.19;63.11;99601.53;4946481;29;20053;-59
2021/05/17 01:11:57;;;;;;;13.73;8.40;;;;;;;16.82;65.77;99545.78;4946977;29;20184;-59
2021/05/17 01:14:24;;;;;;;9.65;7.85;;;;;;;17.13;65.27;99596.59;4929487;29;20031;-58
2021/05/17 01:16:53;;;;;;;8.10;7.30;;;;;;;17.24;64.73;99610.84;4927330;29;20064;-58
2021/05/17 01:19:44;;;;;;;10.93;8.30;;;;;;;17.25;65.72;99602.06;4945402;29;20032;-58
2021/05/17 01:22:22;;;;;;;11.75;8.50;;;;;;;17.18;65.36;99605.06;4946114;29;20062;-58
2021/05/17 01:24:48;;;;;;;10.70;8.05;;;;;;;17.25;64.37;99604.69;4946349;29;20034;-59
2021/05/17 01:27:14;;;;;;;8.40;6.88;;;;;;;17.25;64.36;99606.47;4946237;29;20035;-58
2021/05/17 01:29:41;;;;;;;10.50;7.45;;;;;;;17.23;64.90;99601.31;4946322;29;20032;-57
2021/05/17 01:32:09;;;;;;;9.85;8.05;;;;;;;17.29;64.84;99602.75;4946521;29;20039;-58
2021/05/17 01:34:36;;;;;;;9.75;7.38;;;;;;;17.05;64.82;99549.88;4935595;29;20034;-59
2021/05/17 01:37:02;;;;;;;7.60;6.70;;;;;;;17.20;63.95;99587.50;4927288;29;20028;-58
2021/05/17 01:39:29;;;;;;;9.02;6.90;;;;;;;17.29;64.78;99608.00;4945546;29;20236;-58
2021/05/17 01:41:55;;;;;;;8.68;7.22;;;;;;;17.30;64.60;99606.22;4946118;29;20315;-59
2021/05/17 01:44:24;;;;;;;9.57;7.28;;;;;;;16.95;64.88;99553.91;4945280;29;20032;-59
2021/05/17 01:46:50;;;;;;;8.30;6.70;;;;;;;17.27;64.66;99603.75;4940731;29;20035;-59
2021/05/17 01:49:18;;;;;;;8.88;6.28;;;;;;;17.17;65.02;99608.59;4946214;29;20031;-59
2021/05/17 01:51:45;;;;;;;7.75;6.10;;;;;;;17.11;65.18;99606.31;4945730;29;20027;-59
2021/05/17 01:54:12;;;;;;;7.75;6.38;;;;;;;17.05;65.56;99610.06;4945647;29;20027;-59
2021/05/17 01:56:39;;;;;;;9.52;7.18;;;;;;;17.06;65.09;99617.00;4945976;29;20120;-59
2021/05/17 01:59:06;;;;;;;10.00;6.45;;;;;;;17.04;64.89;99606.59;4945574;29;20035;-59
2021/05/17 02:01:32;;;;;;;9.52;5.97;;;;;;;16.99;63.50;99616.47;4945902;29;20063;-59
2021/05/17 02:03:58;;;;;;;10.55;6.93;;;;;;;17.15;64.79;99618.31;4945820;29;20031;-59
2021/05/17 02:06:24;;;;;;;15.77;6.07;;;;;;;17.06;64.74;99612.59;4945675;29;20245;-60
2021/05/17 02:08:51;;;;;;;12.18;7.32;;;;;;;17.15;64.54;99618.31;4945538;29;20043;-60
2021/05/17 02:11:22;;;;;;;7.70;6.10;;;;;;;17.06;63.75;99625.69;4945577;29;20051;-59
2021/05/17 02:13:48;;;;;;;6.70;6.00;;;;;;;17.09;63.71;99619.47;4935606;29;20032;-59
2021/05/17 02:16:16;;;;;;;7.00;5.95;;;;;;;17.29;64.09;99620.22;4938648;29;20038;-58
2021/05/17 02:18:47;;;;;;;7.85;5.80;;;;;;;16.95;62.93;99578.28;4944276;29;20027;-59
2021/05/17 02:21:14;;;;;;;10.77;6.13;;;;;;;17.32;62.25;99628.78;4945697;29;20028;-59
2021/05/17 02:23:41;;;;;;;8.25;5.68;;;;;;;17.33;62.37;99625.25;4944419;29;20430;-59
2021/05/17 02:26:07;;;;;;;8.27;5.80;;;;;;;17.54;62.79;99627.69;4960118;29;20071;-59
2021/05/17 02:28:39;;;;;;;9.15;5.18;;;;;;;17.52;61.22;99630.38;4945238;29;20036;-59
2021/05/17 02:31:07;;;;;;;6.38;5.70;;;;;;;17.69;61.15;99624.28;4943955;29;20224;-60
2021/05/17 02:33:34;;;;;;;8.07;6.03;;;;;;;17.81;60.80;99621.94;4945408;29;20094;-59
2021/05/17 02:36:00;;;;;;;7.00;5.72;;;;;;;18.07;60.77;99615.34;4937122;29;20047;-59
2021/05/17 02:38:26;;;;;;;5.78;5.20;;;;;;;18.00;60.43;99620.09;4935337;29;20031;-59
2021/05/17 02:40:52;;;;;;;6.95;5.53;;;;;;;18.06;60.46;99630.22;4945092;29;20039;-59
2021/05/17 02:43:21;;;;;;;6.38;5.10;;;;;;;18.17;60.22;99626.19;4944829;29;20284;-59
2021/05/17 02:45:48;;;;;;;7.43;5.20;;;;;;;18.17;59.32;99621.81;4944985;29;20047;-59
2021/05/17 02:48:14;;;;;;;7.28;5.00;;;;;;;18.13;59.60;99619.41;4944799;29;20037;-61
2021/05/17 02:50:44;;;;;;;9.82;5.80;;;;;;;18.31;58.75;99626.28;4945333;29;20027;-59
2021/05/17 02:53:28;;;;;;;7.15;5.43;;;;;;;18.26;59.27;99610.81;4944664;29;20083;-59
2021/05/17 02:55:55;;;;;;;7.25;5.85;;;;;;;18.47;59.14;99607.94;4944830;29;20044;-60
2021/05/17 02:58:23;;;;;;;7.35;5.35;;;;;;;17.98;58.72;99559.03;4945112;29;20339;-60
2021/05/17 03:01:00;;;;;;;5.70;5.00;;;;;;;18.49;59.48;99600.00;4945044;29;20047;-60
2021/05/17 03:03:26;;;;;;;5.90;5.28;;;;;;;18.65;58.70;99611.31;4944184;29;20091;-60
2021/05/17 03:06:02;;;;;;;9.52;5.95;;;;;;;18.48;58.51;99603.53;4945112;29;20320;-59
2021/05/17 03:08:33;;;;;;;7.53;5.13;;;;;;;18.19;58.86;99550.94;4944861;29;20058;-59
2021/05/17 03:11:01;;;;;;;6.82;5.20;;;;;;;18.13;58.88;99546.03;4939280;29;20023;-60
2021/05/17 03:13:27;;;;;;;6.63;4.80;;;;;;;18.38;58.62;99592.72;4944453;29;20282;-59
2021/05/17 03:15:53;;;;;;;6.05;4.95;;;;;;;18.52;58.80;99600.66;4944467;29;20047;-59
2021/05/17 03:18:19;;;;;;;6.55;5.10;;;;;;;18.61;58.20;99599.28;4944637;29;20123;-59
2021/05/17 03:20:44;;;;;;;7.10;4.82;;;;;;;18.76;57.70;99592.34;4944642;29;20235;-59
2021/05/17 03:23:14;;;;;;;9.15;5.13;;;;;;;18.84;57.98;99590.13;4944528;29;20036;-59
2021/05/17 03:25:43;;;;;;;7.38;5.05;;;;;;;18.88;56.48;99569.81;4944394;29;20086;-60
2021/05/17 03:28:09;;;;;;;7.30;5.07;;;;;;;19.06;57.65;99596.78;4944633;29;20024;-60
2021/05/17 03:30:35;;;;;;;9.85;5.03;;;;;;;18.87;56.83;99607.50;4944472;29;20224;-60
2021/05/17 03:33:01;;;;;;;6.45;4.85;;;;;;;19.33;55.67;99602.19;4944579;29;20032;-59
2021/05/17 03:35:27;;;;;;;5.47;4.63;;;;;;;19.16;56.10;99610.25;4944768;29;20059;-60
2021/05/17 03:37:53;;;;;;;5.50;4.90;;;;;;;19.40;56.28;99605.31;4948200;29;20031;-59
2021/05/17 03:40:20;;;;;;;11.73;4.88;;;;;;;19.52;55.15;99606.34;4941823;29;20336;-61
2021/05/17 03:42:46;;;;;;;7.63;5.40;;;;;;;19.65;55.30;99609.94;4941849;29;20033;-60
2021/05/17 03:45:14;;;;;;;6.85;4.78;;;;;;;19.78;54.69;99607.41;4929663;29;20043;-61
2021/05/17 03:47:40;;;;;;;6.38;4.55;;;;;;;19.79;55.29;99609.97;4930964;29;20032;-60
2021/05/17 03:50:09;;;;;;;9.43;4.43;;;;;;;19.66;55.23;99628.22;4947684;29;20057;-60
2021/05/17 03:52:35;;;;;;;6.45;4.80;;;;;;;19.64;55.32;99595.13;4936955;29;20035;-61
2021/05/17 03:55:01;;;;;;;5.55;4.22;;;;;;;19.52;55.69;99606.34;4940644;29;20027;-59
2021/05/17 03:57:27;;;;;;;6.53;4.72;;;;;;;19.77;55.15;99610.97;4935914;29;20024;-60
2021/05/17 03:59:53;;;;;;;5.85;4.50;;;;;;;20.02;54.71;99610.34;4947585;29;20260;-60
2021/05/17 04:02:21;;;;;;;7.90;4.47;;;;;;;19.76;54.17;99607.50;4947266;29;20063;-59
2021/05/17 04:05:00;;;;;;;10.10;4.63;;;;;;;20.05;53.80;99615.44;4948110;29;20086;-59
2021/05/17 04:15:23;;;;;;;7.15;4.43;;;;;;;20.07;53.43;99608.28;4943948;29;20035;-61
2021/05/17 04:17:49;;;;;;;7.75;4.57;;;;;;;20.36;53.00;99608.22;4930230;29;20359;-61
2021/05/17 04:20:15;;;;;;;7.55;4.38;;;;;;;20.66;53.02;99607.19;4940450;29;20031;-61
2021/05/17 04:22:41;;;;;;;6.13;4.35;;;;;;;20.94;53.70;99602.81;4945975;29;20046;-61
2021/05/17 04:25:08;;;;;;;6.45;4.70;;;;;;;21.02;52.90;99601.34;4947012;29;20027;-61
2021/05/17 04:27:35;;;;;;;5.10;4.47;;;;;;;21.12;51.95;99603.38;4947049;29;20044;-61
2021/05/17 04:30:01;;;;;;;5.13;4.20;;;;;;;21.04;50.36;99599.44;4947038;29;20039;-65
2021/05/17 04:32:27;;;;;;;8.25;4.30;;;;;;;21.07;51.33;99597.56;4946464;29;20040;-61
2021/05/17 04:34:53;;;;;;;8.30;4.32;;;;;;;20.97;50.46;99598.16;4945304;29;20038;-62
2021/05/17 04:37:18;;;;;;;7.15;4.43;;;;;;;20.91;50.45;99588.06;4935203;29;20039;-63
2021/05/17 04:39:44;;;;;;;6.38;4.32;;;;;;;21.15;50.79;99598.75;4942859;29;20192;-62
2021/05/17 04:42:10;;;;;;;7.70;4.68;;;;;;;21.44;49.83;99595.09;4945039;29;20032;-63
2021/05/17 04:44:35;;;;;;;10.20;4.47;;;;;;;21.79;50.66;99576.88;4931345;29;20384;-62
2021/05/17 04:47:01;;;;;;;7.15;3.90;;;;;;;21.89;47.54;99577.91;4941182;29;20035;-63
2021/05/17 04:49:28;;;;;;;5.95;4.40;;;;;;;22.61;47.88;99586.91;4944632;29;20039;-62
2021/05/17 04:51:54;;;;;;;9.70;4.97;;;;;;;22.66;46.61;99583.91;4935662;29;20039;-63
2021/05/17 04:54:19;;;;;;;5.65;3.53;;;;;;;23.82;45.92;99578.69;4925433;29;20047;-64
2021/05/17 04:56:45;;;;;;;6.05;3.92;;;;;;;24.35;44.55;99577.22;4927762;29;20156;-62
2021/05/17 04:59:11;;;;;;;5.60;4.05;;;;;;;24.25;43.39;99577.94;4939376;29;20036;-62
2021/05/17 05:01:36;;;;;;;6.60;3.60;;;;;;;23.52;43.41;99577.47;4946393;29;20236;-63
2021/05/17 05:04:03;;;;;;;7.30;3.90;;;;;;;24.26;43.10;99579.63;4946485;29;20370;-63
2021/05/17 05:06:28;;;;;;;8.35;3.70;;;;;;;23.79;43.29;99592.16;4946777;29;20031;-63
2021/05/17 05:08:54;;;;;;;5.88;3.42;;;;;;;23.11;44.50;99589.41;4946527;29;20213;-60
2021/05/17 05:11:20;;;;;;;6.55;3.83;;;;;;;23.11;44.92;99589.41;4945755;29;20039;-63
2021/05/17 05:13:45;;;;;;;5.35;3.03;;;;;;;23.13;45.11;99587.50;4939808;29;20024;-63
2021/05/17 05:16:11;;;;;;;6.00;3.55;;;;;;;23.40;45.03;99594.28;4926783;29;20043;-62
2021/05/17 05:18:37;;;;;;;4.68;3.40;;;;;;;23.27;45.22;99592.59;4931487;29;20024;-61
2021/05/17 05:21:03;;;;;;;5.97;3.33;;;;;;;23.56;44.55;99589.50;4934978;29;20492;-63
2021/05/17 05:23:29;;;;;;;7.55;3.13;;;;;;;24.17;43.81;99595.41;4927614;29;20127;-63
2021/05/17 05:28:23;;;;;;;5.20;3.25;;;;;;;23.41;44.29;99593.31;4929594;29;20032;-62
2021/05/17 05:33:16;;;;;;;6.90;3.28;;;;;;;24.13;42.65;99593.00;4925632;29;20364;-64
2021/05/17 05:35:43;;;;;;;5.72;3.60;;;;;;;24.20;42.69;99598.66;4923906;28;20293;-61
2021/05/17 05:38:10;;;;;;;4.88;3.03;;;;;;;24.23;42.31;99587.81;4941975;29;20047;-62
2021/05/17 05:40:36;;;;;;;3.92;2.88;;;;;;;24.23;42.35;99593.13;4945574;29;20348;-63
2021/05/17 05:43:02;;;;;;;8.02;3.35;;;;;;;24.92;41.52;99599.06;4945918;29;20027;-63
2021/05/17 05:45:28;;;;;;;5.63;2.60;;;;;;;25.33;41.60;99595.63;4944824;29;20035;-63
2021/05/17 05:47:54;;;;;;;5.28;2.65;;;;;;;23.99;42.35;99589.78;4945705;29;20277;-63
2021/05/17 05:50:20;;;;;;;4.50;2.53;;;;;;;23.89;42.31;99581.72;4944732;29;20031;-62
2021/05/17 05:52:46;;;;;;;5.30;2.50;;;;;;;23.40;43.10;99588.97;4945478;29;20042;-63
2021/05/17 05:55:12;;;;;;;5.97;2.70;;;;;;;24.18;42.41;99583.88;4945010;29;20091;-63
2021/05/17 05:57:42;;;;;;;5.13;2.63;;;;;;;24.11;42.90;99591.44;4945536;29;20032;-62
2021/05/17 06:00:13;;;;;;;4.55;2.83;;;;;;;24.07;42.16;99585.56;4944805;29;20031;-62
2021/05/17 06:02:40;;;;;;;6.38;2.53;;;;;;;23.85;42.70;99589.03;4944475;29;20132;-65
2021/05/17 06:05:07;;;;;;;5.38;2.58;;;;;;;24.01;42.84;99593.13;4945516;29;20054;-62
2021/05/17 06:07:33;;;;;;;5.45;2.80;;;;;;;24.00;41.95;99587.03;4945392;29;20051;-63
2021/05/17 06:09:59;;;;;;;3.90;2.60;;;;;;;23.89;42.47;99579.91;4945369;29;20043;-64
2021/05/17 06:12:25;;;;;;;8.13;2.95;;;;;;;24.03;41.94;99583.25;4944982;29;20203;-63
2021/05/17 06:15:03;;;;;;;4.35;2.55;;;;;;;23.82;42.55;99589.28;4945131;29;20067;-61
2021/05/17 06:17:30;;;;;;;4.53;2.42;;;;;;;23.75;42.81;99593.34;4944377;29;20127;-63
2021/05/17 06:19:56;;;;;;;5.28;2.75;;;;;;;23.73;42.67;99590.84;4945053;29;20232;-64
2021/05/17 06:22:25;;;;;;;3.88;2.60;;;;;;;23.91;42.46;99596.53;4944591;28;20248;-61
2021/05/17 06:24:53;;;;;;;5.50;2.47;;;;;;;24.23;42.35;99577.25;4944647;29;20031;-62
2021/05/17 06:27:19;;;;;;;7.50;3.00;;;;;;;24.30;42.74;99577.59;4944770;29;20028;-63
2021/05/17 06:29:45;;;;;;;4.03;2.83;;;;;;;24.59;42.41;99580.50;4944774;29;20256;-63
2021/05/17 06:32:12;;;;;;;5.15;2.85;;;;;;;24.32;42.68;99575.66;4944631;29;20027;-63
2021/05/17 06:34:41;;;;;;;2.80;2.60;;;;;;;24.59;42.37;99577.84;4944796;29;20040;-63
2021/05/17 06:37:07;;;;;;;3.70;2.47;;;;;;;24.72;42.00;99571.59;4944641;29;20031;-63
2021/05/17 06:39:33;;;;;;;3.55;2.22;;;;;;;24.90;41.93;99563.94;4944610;29;20031;-65
2021/05/17 06:41:59;;;;;;;6.78;2.60;;;;;;;24.81;41.30;99549.63;4944301;29;20033;-63
2021/05/17 06:44:25;;;;;;;4.35;2.55;;;;;;;24.90;41.32;99567.41;4944282;29;20027;-62
2021/05/17 06:46:51;;;;;;;8.02;2.58;;;;;;;24.73;41.34;99552.91;4943825;29;20132;-62
2021/05/17 06:49:17;;;;;;;3.85;2.70;;;;;;;25.07;40.19;99557.19;4944586;29;20043;-63
2021/05/17 06:51:43;;;;;;;6.68;2.72;;;;;;;25.01;40.58;99544.47;4944441;29;20035;-63
2021/05/17 06:54:10;;;;;;;3.63;2.40;;;;;;;25.25;40.61;99537.06;4942529;29;20043;-63
2021/05/17 06:57:01;;;;;;;9.45;2.78;;;;;;;25.59;40.55;99534.19;4944492;29;20035;-63
2021/05/17 06:59:27;;;;;;;2.90;2.22;;;;;;;25.58;39.95;99527.25;4943960;28;20038;-63
2021/05/17 07:01:55;;;;;;;4.80;2.47;;;;;;;25.78;40.03;99521.97;4943986;29;20031;-63
2021/05/17 07:04:21;;;;;;;6.57;2.40;;;;;;;25.79;39.58;99527.16;4944432;29;20416;-63
2021/05/17 07:06:53;;;;;;;5.60;2.50;;;;;;;25.87;39.89;99520.31;4944420;29;20032;-63
2021/05/17 07:12:10;;;;;;;3.15;2.30;;;;;;;26.03;38.79;99533.13;4944030;29;20051;-62
2021/05/17 07:14:35;;;;;;;5.88;2.90;;;;;;;25.55;39.68;99524.84;4937831;29;20102;-63
2021/05/17 07:17:01;;;;;;;9.48;2.78;;;;;;;26.09;39.85;99529.94;4945758;29;20042;-62
2021/05/17 07:19:27;;;;;;;5.95;2.20;;;;;;;25.91;39.33;99514.63;4945897;29;20035;-62
2021/05/17 07:24:37;;;;;;;7.30;2.35;;;;;;;25.82;38.57;99515.44;4945591;29;20201;-62
2021/05/17 07:27:03;;;;;;;2.75;2.40;;;;;;;25.47;38.64;99520.19;4946389;29;20032;-62
2021/05/17 07:29:33;;;;;;;4.60;2.63;;;;;;;25.34;38.81;99511.66;4947722;28;20055;-62
2021/05/17 07:31:58;;;;;;;4.97;3.00;;;;;;;25.71;38.78;99510.22;4947805;29;20066;-62
2021/05/17 07:34:24;;;;;;;5.75;3.20;;;;;;;25.93;38.90;99517.16;4948267;29;20289;-62
2021/05/17 07:36:50;;;;;;;5.75;2.67;;;;;;;26.20;38.44;99497.94;4948412;29;20306;-62
2021/05/17 07:39:16;;;;;;;5.88;2.60;;;;;;;26.04;38.56;99492.31;4948089;29;20027;-62
2021/05/17 07:41:42;;;;;;;11.55;2.70;;;;;;;26.14;37.91;99499.34;4948148;28;20223;-63
2021/05/17 07:44:09;;;;;;;3.58;2.40;;;;;;;26.14;38.27;99498.50;4946596;29;20035;-63
2021/05/17 07:46:35;;;;;;;4.00;2.90;;;;;;;25.87;38.30;99501.75;4947219;29;20096;-63
2021/05/17 07:51:29;;;;;;;6.90;2.63;;;;;;;25.60;38.06;99493.44;4947499;29;20099;-62
2021/05/17 07:53:55;;;;;;;5.53;2.60;;;;;;;25.84;38.04;99506.38;4946799;29;20422;-62
2021/05/17 07:56:22;;;;;;;8.23;2.88;;;;;;;25.75;38.07;99485.13;4947183;29;20230;-62
2021/05/17 07:58:49;;;;;;;5.65;2.30;;;;;;;26.04;37.82;99482.56;4947541;29;20024;-62
2021/05/17 08:01:15;;;;;;;4.30;2.60;;;;;;;25.86;37.66;99477.03;4947575;29;20024;-63
2021/05/17 08:03:40;;;;;;;4.57;2.55;;;;;;;25.88;37.88;99491.03;4947228;29;20043;-65
2021/05/17 08:06:09;;;;;;;7.30;2.95;;;;;;;25.77;38.12;99486.66;4947517;29;20308;-62
2021/05/17 08:08:35;;;;;;;6.45;2.28;;;;;;;26.21;37.71;99488.16;4947488;29;20134;-62
2021/05/17 08:11:03;;;;;;;4.00;2.40;;;;;;;25.90;36.79;99445.78;4947174;29;20040;-63
2021/05/17 08:13:30;;;;;;;5.70;2.60;;;;;;;26.13;37.50;99479.06;4947285;29;20031;-61
2021/05/17 08:15:56;;;;;;;6.07;2.90;;;;;;;26.16;37.80;99472.66;4946922;29;20039;-62
2021/05/17 08:18:22;;;;;;;6.47;2.60;;;;;;;26.54;37.85;99481.59;4947386;29;20051;-63
2021/05/17 08:20:48;;;;;;;4.13;2.42;;;;;;;26.13;36.91;99473.75;4947143;29;20031;-63
2021/05/17 08:23:16;;;;;;;8.73;3.47;;;;;;;26.20;37.58;99479.38;4945424;29;20030;-63
2021/05/17 08:25:44;;;;;;;4.85;3.15;;;;;;;26.18;37.49;99455.59;4947424;29;20030;-64
2021/05/17 08:28:11;;;;;;;5.40;2.53;;;;;;;26.28;37.12;99468.03;4946767;29;20319;-61
2021/05/17 08:30:46;;;;;;;7.38;2.80;;;;;;;26.52;36.56;99463.16;4947263;29;20031;-64
2021/05/17 08:33:13;;;;;;;4.22;2.95;;;;;;;26.53;37.11;99475.44;4947558;29;20046;-64
2021/05/17 08:35:40;;;;;;;4.30;2.25;;;;;;;26.61;37.02;99461.47;4977864;28;20087;-63
2021/05/17 08:38:06;;;;;;;3.08;2.70;;;;;;;26.47;36.39;99459.25;4947202;29;20380;-63
2021/05/17 08:40:37;;;;;;;4.35;2.38;;;;;;;26.52;37.13;99446.34;4944194;29;20028;-63
2021/05/17 08:43:03;;;;;;;5.72;2.35;;;;;;;26.59;37.18;99442.16;4941955;29;20063;-62
2021/05/17 08:45:30;;;;;;;4.18;2.15;;;;;;;26.65;36.82;99435.44;4938625;29;20059;-63
2021/05/17 08:47:56;;;;;;;3.50;2.72;;;;;;;26.68;37.30;99451.97;4941882;29;20043;-63
2021/05/17 08:50:23;;;;;;;7.25;2.60;;;;;;;26.93;36.64;99438.22;4939859;29;20028;-62
2021/05/17 08:52:49;;;;;;;5.75;3.25;;;;;;;27.23;36.36;99436.28;4939510;29;20047;-63
2021/05/17 08:55:15;;;;;;;8.75;7.10;;;;;;;26.89;36.35;99444.78;4940969;29;20051;-63
2021/05/17 08:57:42;;;;;;;3.42;2.35;;;;;;;26.89;36.74;99436.81;4938539;28;20055;-63
2021/05/17 09:00:09;;;;;;;5.10;2.30;;;;;;;26.64;36.04;99428.47;4905307;29;20060;-62
2021/05/17 09:02:35;;;;;;;3.17;2.50;;;;;;;27.06;36.82;99419.28;4946894;29;20075;-62
2021/05/17 09:05:18;;;;;;;7.40;2.55;;;;;;;27.16;36.38;99414.75;4946454;29;20036;-63
2021/05/17 09:07:48;;;;;;;2.95;2.42;;;;;;;27.37;35.47;99417.22;4946729;29;20155;-62
2021/05/17 09:10:25;;;;;;;5.20;2.87;;;;;;;27.15;35.96;99405.09;4946437;28;20197;-62
2021/05/17 09:13:07;;;;;;;5.75;2.42;;;;;;;27.05;35.79;99407.81;4946706;29;20434;-62
2021/05/17 09:15:47;;;;;;;7.57;2.80;;;;;;;27.33;35.42;99413.97;4940375;29;20031;-63
2021/05/17 09:18:28;;;;;;;4.32;2.38;;;;;;;27.31;35.61;99402.66;4946557;29;20062;-63
2021/05/17 09:20:56;;;;;;;4.03;2.80;;;;;;;27.09;35.08;99361.31;4946519;29;20348;-62
2021/05/17 09:23:31;;;;;;;5.97;2.67;;;;;;;27.07;35.64;99355.31;4937567;29;20224;-62
2021/05/17 09:26:01;;;;;;;4.53;2.42;;;;;;;27.45;36.17;99395.19;4946234;29;20168;-63
2021/05/17 09:28:34;;;;;;;5.90;2.40;;;;;;;27.11;36.29;99391.28;4946388;29;20387;-65
2021/05/17 09:31:12;;;;;;;4.63;2.42;;;;;;;26.64;36.15;99343.44;4943179;29;20118;-63
2021/05/17 09:34:01;;;;;;;3.83;2.15;;;;;;;27.34;35.74;99380.25;4945528;29;20028;-62
2021/05/17 09:36:29;;;;;;;5.80;2.72;;;;;;;27.17;36.51;99384.53;4946240;29;20310;-64
2021/05/17 09:38:55;;;;;;;7.68;2.60;;;;;;;27.42;35.64;99367.06;4946286;29;20038;-63
2021/05/17 09:41:21;;;;;;;5.68;2.70;;;;;;;27.53;36.56;99371.31;4938225;29;20043;-62
2021/05/17 09:43:47;;;;;;;10.05;3.28;;;;;;;27.79;35.94;99374.09;4946251;29;20051;-63
2021/05/17 09:46:13;;;;;;;5.68;2.70;;;;;;;27.66;35.83;99369.16;4944745;29;20071;-64
2021/05/17 09:48:46;;;;;;;4.20;2.30;;;;;;;27.67;36.19;99357.50;4946098;29;20264;-63
2021/05/17 09:51:13;;;;;;;8.10;2.67;;;;;;;27.59;36.10;99370.72;4945878;29;20032;-62
2021/05/17 09:53:41;;;;;;;4.60;2.22;;;;;;;27.54;35.66;99367.69;4944873;29;20032;-62
2021/05/17 09:56:23;;;;;;;9.48;2.70;;;;;;;27.33;36.09;99349.31;4945698;29;20098;-62
2021/05/17 09:58:57;;;;;;;6.40;2.83;;;;;;;27.41;36.23;99337.94;4946021;29;20031;-64
2021/05/17 10:01:27;;;;;;;6.55;2.72;;;;;;;27.63;36.33;99358.78;4938193;29;20042;-63
2021/05/17 10:03:54;;;;;;;6.82;2.90;;;;;;;27.72;36.36;99347.25;4945245;29;20098;-62
2021/05/17 10:06:25;;;;;;;6.55;2.65;;;;;;;26.93;36.77;99247.66;4945607;29;20302;-62
2021/05/17 10:08:52;;;;;;;7.47;2.90;;;;;;;27.63;36.04;99332.19;4945331;29;20100;-63
2021/05/17 10:11:19;;;;;;;5.22;2.65;;;;;;;27.96;36.71;99350.28;4945462;29;20035;-63
2021/05/17 10:13:44;;;;;;;5.50;2.80;;;;;;;27.77;36.15;99338.81;4944049;29;20039;-62
2021/05/17 10:16:13;;;;;;;7.35;2.60;;;;;;;27.20;36.16;99291.97;4944918;29;20079;-64
2021/05/17 10:18:40;;;;;;;5.38;3.10;;;;;;;27.64;35.80;99328.53;4945144;29;20079;-62
2021/05/17 10:21:09;;;;;;;10.52;3.05;;;;;;;27.82;36.46;99341.00;4941997;28;20019;-62
2021/05/17 10:23:40;;;;;;;6.57;2.83;;;;;;;27.90;36.73;99341.06;4939260;29;20059;-64
2021/05/17 10:26:11;;;;;;;5.72;2.55;;;;;;;27.90;35.56;99335.75;4942821;29;20312;-62
2021/05/17 10:28:39;;;;;;;10.53;3.17;;;;;;;27.66;36.46;99341.69;4941732;29;20059;-63
2021/05/17 10:31:11;;;;;;;11.63;3.08;;;;;;;27.77;36.42;99314.03;4943773;29;20485;-63
2021/05/17 10:33:37;;;;;;;8.73;2.78;;;;;;;27.88;35.14;99348.41;4943241;29;20095;-63
2021/05/17 10:36:06;;;;;;;9.63;3.20;;;;;;;27.76;35.62;99336.28;4944582;29;20403;-65
2021/05/17 10:38:42;;;;;;;7.43;3.08;;;;;;;27.89;35.74;99337.59;4944808;29;20038;-64
2021/05/17 10:41:12;;;;;;;8.20;3.33;;;;;;;28.14;35.80;99339.66;4943186;29;20071;-63
2021/05/17 10:44:29;;;;;;;5.00;2.75;;;;;;;28.34;36.04;99326.97;4944681;29;20040;-63
2021/05/17 10:46:56;;;;;;;13.70;3.28;;;;;;;28.51;35.18;99323.41;4935382;29;20352;-63
2021/05/17 10:49:37;;;;;;;6.18;2.95;;;;;;;28.10;35.13;99327.63;4937155;29;20035;-64
2021/05/17 10:52:07;;;;;;;6.20;2.58;;;;;;;28.11;35.29;99332.78;4944752;28;20027;-63
2021/05/17 10:54:35;;;;;;;5.35;3.22;;;;;;;28.20;35.12;99315.03;4938956;29;20256;-62
2021/05/17 10:57:31;;;;;;;13.00;3.00;;;;;;;28.45;35.22;99301.88;4936195;29;20056;-62
2021/05/17 11:02:44;;;;;;;4.50;2.60;;;;;;;28.46;34.74;99292.88;4942845;29;20375;-61
2021/05/17 11:05:19;;;;;;;6.82;2.88;;;;;;;28.54;34.65;99284.94;4957828;28;20231;-63
2021/05/17 11:07:56;;;;;;;10.00;3.25;;;;;;;28.51;35.26;99290.59;4944807;29;20049;-63
2021/05/17 11:10:38;;;;;;;6.85;3.30;;;;;;;28.74;35.02;99283.72;4944505;29;20034;-61
2021/05/17 11:13:06;;;;;;;4.97;2.42;;;;;;;28.29;34.67;99266.19;4944653;29;20036;-62
2021/05/17 11:16:07;;;;;;;8.68;2.92;;;;;;;28.52;35.15;99273.63;4944155;29;20035;-62
2021/05/17 11:18:47;;;;;;;7.43;3.08;;;;;;;28.49;35.29;99263.25;4944445;29;20044;-64
2021/05/17 11:21:23;;;;;;;8.35;3.00;;;;;;;28.47;35.05;99260.75;4943306;29;20094;-63
2021/05/17 11:23:55;;;;;;;7.55;3.38;;;;;;;28.55;34.81;99254.66;4944788;29;20032;-63
2021/05/17 11:26:23;;;;;;;11.88;3.60;;;;;;;28.58;35.44;99246.34;4944435;29;20028;-62
2021/05/17 11:28:49;;;;;;;9.05;2.80;;;;;;;28.69;35.00;99242.56;4944420;29;20080;-64
2021/05/17 11:31:23;;;;;;;8.23;3.28;;;;;;;28.70;34.48;99247.75;4944448;29;20340;-63
2021/05/17 11:33:56;;;;;;;6.15;2.80;;;;;;;28.40;34.83;99193.97;4944365;28;20208;-64
2021/05/17 11:36:42;;;;;;;7.78;3.33;;;;;;;28.85;34.92;99236.47;4936756;29;20035;-62
2021/05/17 11:39:11;;;;;;;10.60;3.75;;;;;;;28.86;35.10;99227.44;4936211;29;20036;-62
2021/05/17 11:42:06;;;;;;;7.80;3.60;;;;;;;29.03;35.28;99231.84;4944369;29;20031;-63
2021/05/17 11:44:36;;;;;;;9.02;3.17;;;;;;;28.73;34.72;99226.09;4942345;29;20077;-61
2021/05/17 11:47:06;;;;;;;7.00;3.20;;;;;;;28.66;34.80;99182.44;4943702;29;20218;-62
2021/05/17 11:49:36;;;;;;;7.70;3.83;;;;;;;28.81;34.49;99181.81;4926641;29;20224;-62
2021/05/17 11:52:08;;;;;;;7.53;3.80;;;;;;;29.05;34.42;99219.19;4944002;29;20023;-62
2021/05/17 11:54:45;;;;;;;9.20;3.55;;;;;;;29.06;34.99;99201.31;4944437;29;20062;-62
2021/05/17 11:57:11;;;;;;;10.95;3.33;;;;;;;29.18;34.03;99207.19;4945155;29;20197;-63
2021/05/17 11:59:37;;;;;;;16.35;3.55;;;;;;;29.22;33.19;99214.69;4948079;28;20032;-65
2021/05/17 12:02:06;;;;;;;10.02;3.30;;;;;;;28.93;33.40;99157.34;4947463;29;20028;-63